Time;durP1;ratioP1;P1;durP2;ratioP2;P2;SDS_P1;SDS_P2;PMS_P1;PMS_P2;Temp;Humidity;BMP_temperature;BMP_pressure;BME280_temperature;BME280_humidity;BME280_pressure;Samples;Min_cycle;Max_cycle;Signal;HPM_P1;HPM_P2
2022/04/18 00:02:32;;;;;;;;;;;;;;;19.06;41.83;100819.16;102136;1338;60542;-85
2022/04/18 00:05:20;;;;;;;;;;;;;;;19.06;41.87;100820.80;102050;1338;71478;-84
2022/04/18 00:08:15;;;;;;;;;;;;;;;19.06;41.82;100818.30;101762;1344;72817;-84
2022/04/18 00:11:36;;;;;;;;;;;;;;;19.05;41.84;100819.95;101594;1350;60515;-84
2022/04/18 00:14:11;;;;;;;;;;;;;;;19.05;41.87;100811.42;101720;1345;60658;-81
2022/04/18 00:17:09;;;;;;;;;;;;;;;19.05;41.86;100815.19;101719;1347;72934;-85
2022/04/18 00:19:46;;;;;;;;;;;;;;;19.05;41.85;100813.73;101708;1347;74276;-84
2022/04/18 00:22:44;;;;;;;;;;;;;;;19.04;41.79;100819.98;101806;1341;61762;-82
2022/04/18 00:25:50;;;;;;;;;;;;;;;19.04;41.85;100803.42;101851;1340;60652;-85
2022/04/18 00:28:54;;;;;;;;;;;;;;;;;;;;;
2022/04/18 00:31:46;;;;;;;;;;;;;;;;;;;;;
2022/04/18 00:34:41;;;;;;;;;;;;;;;19.04;41.78;100800.77;101719;1344;60758;-85
2022/04/18 00:37:41;;;;;;;;;;;;;;;;;;;;;
2022/04/18 00:40:57;;;;;;;;;;;;;;;;;;;;;
2022/04/18 00:44:03;;;;;;;;;;;;;;;19.03;41.73;100792.23;101726;1345;73979;-86
2022/04/18 00:47:05;;;;;;;;;;;;;;;;;;;;;
2022/04/18 00:49:35;;;;;;;;;;;;;;;19.03;41.82;100789.59;102029;1337;61309;-82
2022/04/18 00:52:55;;;;;;;;;;;;;;;19.02;41.78;100783.20;102016;1338;72923;-83
2022/04/18 00:55:38;;;;;;;;;;;;;;;19.02;41.81;100781.95;102031;1338;72977;-79
2022/04/18 00:58:39;;;;;;;;;;;;;;;;;;;;;
2022/04/18 01:01:34;;;;;;;;;;;;;;;19.01;41.72;100775.95;101806;1344;60765;-85
2022/04/18 01:04:20;;;;;;;;;;;;;;;19.02;41.75;100768.45;101827;1343;73021;-86
2022/04/18 01:07:29;;;;;;;;;;;;;;;19.01;41.78;100760.98;101921;1338;72818;-82
2022/04/18 01:10:42;;;;;;;;;;;;;;;19.01;41.82;100761.71;101946;1338;61273;-85
2022/04/18 01:13:49;;;;;;;;;;;;;;;19.01;41.74;100757.60;101876;1341;60404;-87
2022/04/18 01:16:34;;;;;;;;;;;;;;;19.01;41.84;100759.20;102343;1335;73140;-84
2022/04/18 01:19:29;;;;;;;;;;;;;;;19.01;41.86;100757.23;102390;1334;73342;-85
2022/04/18 01:22:15;;;;;;;;;;;;;;;;;;;;;
2022/04/18 01:31:42;;;;;;;;;;;;;;;19.00;41.80;100747.52;102489;1332;72784;-84
2022/04/18 01:34:39;;;;;;;;;;;;;;;18.99;41.81;100749.48;102123;1338;60598;-86
2022/04/18 01:37:16;;;;;;;;;;;;;;;;;;;;;
2022/04/18 01:40:31;;;;;;;;;;;;;;;18.99;41.76;100743.98;101817;1341;71860;-84
2022/04/18 01:43:14;;;;;;;;;;;;;;;18.99;41.78;100740.44;101862;1341;75102;-83
2022/04/18 01:46:31;;;;;;;;;;;;;;;18.99;41.84;100728.52;101851;1341;61625;-84
2022/04/18 01:49:30;;;;;;;;;;;;;;;;;;;;;
2022/04/18 01:52:18;;;;;;;;;;;;;;;18.98;41.78;100723.70;101822;1344;72802;-82
2022/04/18 01:55:19;;;;;;;;;;;;;;;;;;;;;
2022/04/18 01:58:16;;;;;;;;;;;;;;;;;;;;;
2022/04/18 02:01:17;;;;;;;;;;;;;;;18.98;41.78;100714.65;101583;1348;61615;-85
2022/04/18 02:04:07;;;;;;;;;;;;;;;18.97;41.78;100710.56;101586;1348;73807;-85
2022/04/18 02:07:22;;;;;;;;;;;;;;;;;;;;;
2022/04/18 02:10:17;;;;;;;;;;;;;;;18.97;41.79;100713.63;101727;1345;61312;-83
2022/04/18 02:13:16;;;;;;;;;;;;;;;18.97;41.73;100715.23;101818;1342;60664;-84
2022/04/18 02:16:04;;;;;;;;;;;;;;;18.97;41.83;100711.33;102121;1335;72941;-84
2022/04/18 02:19:07;;;;;;;;;;;;;;;18.97;41.79;100713.48;102442;1331;74513;-83
2022/04/18 02:21:54;;;;;;;;;;;;;;;18.96;41.82;100709.41;101994;1338;60600;-84
2022/04/18 02:24:49;;;;;;;;;;;;;;;18.96;41.77;100712.09;102001;1334;60581;-84
2022/04/18 02:27:32;;;;;;;;;;;;;;;18.96;41.89;100718.35;102205;1334;72945;-85
2022/04/18 02:30:20;;;;;;;;;;;;;;;18.96;41.79;100711.03;102468;1331;74190;-82
2022/04/18 02:33:26;;;;;;;;;;;;;;;18.96;41.77;100709.44;102327;1333;60519;-84
2022/04/18 02:39:45;;;;;;;;;;;;;;;;;;;;;
2022/04/18 02:42:51;;;;;;;;;;;;;;;18.95;41.79;100702.90;102076;1337;75212;-79
2022/04/18 02:45:37;;;;;;;;;;;;;;;18.95;41.77;100698.62;102017;1338;61239;-86
2022/04/18 02:48:34;;;;;;;;;;;;;;;18.94;41.80;100701.14;102060;1338;60432;-85
2022/04/18 02:51:26;;;;;;;;;;;;;;;18.95;41.79;100698.27;102100;1337;72859;-85
2022/04/18 02:54:36;;;;;;;;;;;;;;;18.94;41.79;100692.05;101979;1338;73982;-84
2022/04/18 02:57:21;;;;;;;;;;;;;;;18.94;41.74;100695.80;102008;1338;61657;-85
2022/04/18 03:00:53;;;;;;;;;;;;;;;18.93;41.80;100701.90;101884;1341;60689;-86
2022/04/18 03:03:44;;;;;;;;;;;;;;;18.94;41.80;100699.02;101928;1341;73756;-87
2022/04/18 03:07:06;;;;;;;;;;;;;;;18.93;41.77;100702.08;101917;1341;74011;-85
2022/04/18 03:09:50;;;;;;;;;;;;;;;18.92;41.73;100705.15;101909;1335;60424;-84
2022/04/18 03:12:51;;;;;;;;;;;;;;;18.93;41.76;100702.10;102193;1330;60665;-84
2022/04/18 03:16:14;;;;;;;;;;;;;;;18.93;41.75;100702.98;102777;1328;73794;-83
2022/04/18 03:18:44;;;;;;;;;;;;;;;18.92;41.80;100703.92;102733;1329;75270;-82
2022/04/18 03:21:40;;;;;;;;;;;;;;;;;;;;;
2022/04/18 03:24:39;;;;;;;;;;;;;;;;;;;;;
2022/04/18 03:27:37;;;;;;;;;;;;;;;18.91;41.67;100712.52;103596;1319;72408;-82
2022/04/18 03:31:19;;;;;;;;;;;;;;;18.91;41.82;100709.86;103560;1319;72756;-84
2022/04/18 03:34:09;;;;;;;;;;;;;;;18.91;41.88;100713.98;103797;1315;60492;-83
2022/04/18 03:40:20;;;;;;;;;;;;;;;18.91;41.72;100717.92;103872;1318;74222;-90
2022/04/18 03:43:47;;;;;;;;;;;;;;;;;;;;;
2022/04/18 03:46:32;;;;;;;;;;;;;;;18.91;41.81;100717.23;103984;1318;60888;-83
2022/04/18 03:49:20;;;;;;;;;;;;;;;18.91;41.81;100720.26;103998;1318;62307;-86
2022/04/18 03:52:23;;;;;;;;;;;;;;;18.90;41.80;100722.80;103055;1324;70742;-84
2022/04/18 03:55:31;;;;;;;;;;;;;;;18.90;41.90;100729.75;103053;1324;74098;-88
2022/04/18 03:58:25;;;;;;;;;;;;;;;18.89;41.72;100734.77;102415;1332;60723;-85
2022/04/18 04:01:42;;;;;;;;;;;;;;;18.88;41.62;100737.00;102094;1336;60513;-83
2022/04/18 04:04:30;;;;;;;;;;;;;;;18.86;41.50;100733.36;102117;1337;73854;-84
2022/04/18 04:07:41;;;;;;;;;;;;;;;18.84;41.31;100734.36;102057;1338;74030;-84
2022/04/18 04:13:17;;;;;;;;;;;;;;;18.82;41.04;100726.15;102013;1338;62425;-84
2022/04/18 04:16:04;;;;;;;;;;;;;;;18.80;40.97;100719.61;102523;1332;73864;-85
2022/04/18 04:18:50;;;;;;;;;;;;;;;18.80;40.77;100721.80;102867;1329;72817;-82
2022/04/18 04:21:35;;;;;;;;;;;;;;;;;;;;;
2022/04/18 04:25:04;;;;;;;;;;;;;;;;;;;;;
2022/04/18 04:27:47;;;;;;;;;;;;;;;18.80;40.49;100714.86;102342;1334;73772;-80
2022/04/18 04:30:54;;;;;;;;;;;;;;;18.80;40.36;100716.10;102322;1335;73902;-85
2022/04/18 04:34:00;;;;;;;;;;;;;;;18.80;40.35;100711.80;102350;1334;60484;-83
2022/04/18 04:36:34;;;;;;;;;;;;;;;18.81;40.20;100716.93;102783;1329;60507;-82
2022/04/18 04:39:34;;;;;;;;;;;;;;;18.81;40.18;100720.88;103084;1323;72860;-84
2022/04/18 04:42:18;;;;;;;;;;;;;;;;;;;;;
2022/04/18 04:45:31;;;;;;;;;;;;;;;18.81;40.11;100721.02;103347;1323;60467;-84
2022/04/18 04:48:14;;;;;;;;;;;;;;;18.82;39.93;100720.41;103272;1322;60619;-84
2022/04/18 04:51:10;;;;;;;;;;;;;;;18.82;39.90;100719.52;103360;1322;73094;-83
2022/04/18 04:54:25;;;;;;;;;;;;;;;18.82;39.87;100718.45;103266;1321;72790;-81
2022/04/18 04:57:18;;;;;;;;;;;;;;;18.82;39.92;100722.73;102855;1324;60473;-81
2022/04/18 05:00:00;;;;;;;;;;;;;;;18.82;39.81;100719.67;102622;1329;61492;-81
2022/04/18 05:02:53;;;;;;;;;;;;;;;18.82;39.79;100720.94;102997;1323;72928;-83
2022/04/18 05:05:47;;;;;;;;;;;;;;;;;;;;;
2022/04/18 05:08:24;;;;;;;;;;;;;;;;;;;;;
2022/04/18 05:11:33;;;;;;;;;;;;;;;;;;;;;
2022/04/18 05:14:37;;;;;;;;;;;;;;;;;;;;;
2022/04/18 05:17:15;;;;;;;;;;;;;;;;;;;;;
2022/04/18 05:20:24;;;;;;;;;;;;;;;18.83;39.52;100720.55;102748;1326;61939;-83
2022/04/18 05:23:28;;;;;;;;;;;;;;;18.82;39.43;100714.52;102356;1332;61327;-82
2022/04/18 05:26:21;;;;;;;;;;;;;;;18.83;39.48;100718.06;102343;1332;73840;-84
2022/04/18 05:31:47;;;;;;;;;;;;;;;18.83;39.33;100709.68;102459;1329;61321;-83
2022/04/18 05:34:53;;;;;;;;;;;;;;;18.82;39.42;100703.82;102586;1329;61205;-82
2022/04/18 05:37:27;;;;;;;;;;;;;;;18.82;39.37;100699.91;102436;1332;72777;-85
2022/04/18 05:40:42;;;;;;;;;;;;;;;18.83;39.33;100699.17;102390;1332;74627;-81
2022/04/18 05:43:26;;;;;;;;;;;;;;;18.82;39.34;100699.20;102517;1329;61187;-82
2022/04/18 05:46:22;;;;;;;;;;;;;;;18.83;39.16;100693.47;102585;1329;61400;-84
2022/04/18 05:49:18;;;;;;;;;;;;;;;18.82;39.22;100699.71;102670;1328;73640;-83
2022/04/18 05:52:06;;;;;;;;;;;;;;;18.82;39.30;100697.60;102576;1327;74751;-81
2022/04/18 05:55:12;;;;;;;;;;;;;;;18.82;39.21;100692.60;102863;1323;61442;-82
2022/04/18 05:58:00;;;;;;;;;;;;;;;18.82;39.19;100698.48;102686;1328;63050;-83
2022/04/18 06:00:45;;;;;;;;;;;;;;;18.82;39.18;100695.66;103184;1319;73891;-82
2022/04/18 06:03:28;;;;;;;;;;;;;;;18.80;39.22;100693.46;103522;1320;74693;-83
2022/04/18 06:06:14;;;;;;;;;;;;;;;18.78;39.05;100699.79;103577;1318;61369;-84
2022/04/18 06:08:49;;;;;;;;;;;;;;;18.76;38.83;100707.24;103458;1319;61301;-86
2022/04/18 06:11:56;;;;;;;;;;;;;;;18.73;38.87;100710.29;102966;1324;71639;-82
2022/04/18 06:15:07;;;;;;;;;;;;;;;18.71;38.67;100704.34;103069;1320;75537;-87
2022/04/18 06:17:47;;;;;;;;;;;;;;;18.70;38.64;100702.77;103556;1318;59315;-82
2022/04/18 06:20:36;;;;;;;;;;;;;;;18.71;38.61;100706.33;103689;1318;61869;-84
2022/04/18 06:23:10;;;;;;;;;;;;;;;18.71;38.48;100708.45;103618;1318;72734;-81
2022/04/18 06:25:39;;;;;;;;;;;;;;;18.72;38.40;100712.65;103785;1318;74739;-81
2022/04/18 06:28:42;;;;;;;;;;;;;;;18.72;38.51;100710.84;103747;1318;61388;-85
2022/04/18 06:31:51;;;;;;;;;;;;;;;18.73;38.38;100712.79;103867;1318;61528;-86
2022/04/18 06:34:36;;;;;;;;;;;;;;;18.74;38.29;100718.26;103906;1317;72560;-86
2022/04/18 06:37:42;;;;;;;;;;;;;;;18.74;38.40;100719.69;104159;1312;76219;-81
2022/04/18 06:40:11;;;;;;;;;;;;;;;18.75;38.29;100715.33;104225;1312;61944;-83
2022/04/18 06:42:46;;;;;;;;;;;;;;;18.75;38.38;100715.67;104245;1312;61548;-82
2022/04/18 06:45:42;;;;;;;;;;;;;;;;;;;;;
2022/04/18 06:48:45;;;;;;;;;;;;;;;18.75;38.02;100716.36;98402;1312;8140974;-81
2022/04/18 06:51:43;;;;;;;;;;;;;;;18.76;38.13;100719.02;104428;1305;76224;-84
2022/04/18 06:54:50;;;;;;;;;;;;;;;18.76;38.14;100719.71;104714;1306;61692;-85
2022/04/18 06:57:55;;;;;;;;;;;;;;;18.77;38.10;100720.02;104730;1306;61284;-84
2022/04/18 07:01:02;;;;;;;;;;;;;;;18.77;38.35;100718.23;104661;1309;73201;-80
2022/04/18 07:07:02;;;;;;;;;;;;;;;18.78;38.53;100722.13;104149;1313;61421;-82
2022/04/18 07:10:04;;;;;;;;;;;;;;;18.78;38.47;100727.45;103486;1319;61774;-84
2022/04/18 07:12:59;;;;;;;;;;;;;;;18.79;38.47;100729.38;103385;1321;73102;-83
2022/04/18 07:15:59;;;;;;;;;;;;;;;18.78;38.54;100729.94;102956;1326;75735;-81
2022/04/18 07:18:54;;;;;;;;;;;;;;;18.79;38.57;100734.88;102431;1332;61197;-85
2022/04/18 07:21:46;;;;;;;;;;;;;;;18.79;38.66;100732.38;102028;1337;61165;-84
2022/04/18 07:24:59;;;;;;;;;;;;;;;18.79;38.62;100728.44;102012;1338;71996;-84
2022/04/18 07:27:37;;;;;;;;;;;;;;;18.80;38.71;100729.64;102054;1338;74384;-81
2022/04/18 07:30:34;;;;;;;;;;;;;;;18.80;38.73;100733.39;101575;1344;61359;-83
2022/04/18 07:33:30;;;;;;;;;;;;;;;18.80;38.79;100732.48;101695;1344;61805;-83
2022/04/18 07:36:24;;;;;;;;;;;;;;;18.81;38.78;100729.40;101723;1344;72803;-82
2022/04/18 07:39:00;;;;;;;;;;;;;;;18.82;38.79;100729.90;101580;1347;74971;-83
2022/04/18 07:41:57;;;;;;;;;;;;;;;18.82;38.87;100726.14;101750;1341;61985;-84
2022/04/18 07:45:03;;;;;;;;;;;;;;;18.82;38.87;100730.73;101631;1347;62079;-81
2022/04/18 07:47:49;;;;;;;;;;;;;;;18.83;38.89;100729.45;101345;1351;72370;-81
2022/04/18 07:51:31;;;;;;;;;;;;;;;18.83;38.85;100729.09;101369;1350;74733;-81
2022/04/18 07:53:41;;;;;;;;;;;;;;;18.84;38.89;100728.88;101246;1348;61524;-81
2022/04/18 07:56:26;;;;;;;;;;;;;;;18.84;38.94;100725.98;101655;1344;61208;-81
2022/04/18 07:59:05;;;;;;;;;;;;;;;18.85;38.92;100724.54;101772;1341;72803;-84
2022/04/18 08:01:54;;;;;;;;;;;;;;;18.86;39.06;100722.51;101833;1338;74904;-80
2022/04/18 08:04:39;;;;;;;;;;;;;;;;;;;;;
2022/04/18 08:07:19;;;;;;;;;;;;;;;18.86;39.02;100721.60;101907;1332;61395;-81
2022/04/18 08:10:10;;;;;;;;;;;;;;;18.86;39.04;100723.90;102206;1332;73081;-80
2022/04/18 08:12:53;;;;;;;;;;;;;;;18.86;39.09;100722.83;102121;1335;75675;-81
2022/04/18 08:15:19;;;;;;;;;;;;;;;18.87;38.99;100719.54;102270;1329;60630;-80
2022/04/18 08:18:26;;;;;;;;;;;;;;;18.88;39.04;100721.15;102628;1326;61293;-83
2022/04/18 08:20:55;;;;;;;;;;;;;;;18.88;39.02;100717.19;102530;1325;71646;-82
2022/04/18 08:23:37;;;;;;;;;;;;;;;18.88;38.99;100710.94;102800;1323;75959;-80
2022/04/18 08:26:13;;;;;;;;;;;;;;;18.89;38.98;100711.83;103903;1314;61222;-83
2022/04/18 08:28:48;;;;;;;;;;;;;;;18.89;39.11;100712.90;103818;1314;61797;-80
2022/04/18 08:31:17;;;;;;;;;;;;;;;18.89;39.06;100710.56;104117;1313;72891;-83
2022/04/18 08:33:51;;;;;;;;;;;;;;;18.89;38.83;100711.10;104118;1315;75177;-81
2022/04/18 08:36:39;;;;;;;;;;;;;;;18.89;38.90;100709.67;103908;1314;61270;-81
2022/04/18 08:39:10;;;;;;;;;;;;;;;18.89;38.94;100717.86;104174;1313;61524;-83
2022/04/18 08:41:38;;;;;;;;;;;;;;;18.89;38.88;100713.91;104109;1313;72778;-83
2022/04/18 08:44:04;;;;;;;;;;;;;;;18.89;38.95;100711.05;104203;1315;76005;-82
2022/04/18 08:46:30;;;;;;;;;;;;;;;18.89;39.03;100704.68;104065;1313;61273;-82
2022/04/18 08:54:39;;;;;;;;;;;;;;;18.88;38.73;100699.02;104206;1313;75844;-80
2022/04/18 08:57:14;;;;;;;;;;;;;;;18.87;38.92;100700.29;104266;1313;61679;-82
2022/04/18 08:59:42;;;;;;;;;;;;;;;18.88;38.81;100702.95;104263;1313;61278;-83
2022/04/18 09:02:08;;;;;;;;;;;;;;;18.88;38.89;100704.73;104188;1315;61285;-86
2022/04/18 09:04:36;;;;;;;;;;;;;;;18.87;38.67;100704.92;104163;1313;61342;-84
2022/04/18 09:07:09;;;;;;;;;;;;;;;18.88;38.90;100704.90;104230;1313;61275;-80
2022/04/18 09:09:36;;;;;;;;;;;;;;;18.88;38.83;100702.77;104176;1313;61509;-81
2022/04/18 09:12:02;;;;;;;;;;;;;;;18.88;38.81;100708.83;104304;1313;73827;-85
2022/04/18 09:14:28;;;;;;;;;;;;;;;18.87;38.77;100712.05;104047;1315;61308;-85
2022/04/18 09:16:54;;;;;;;;;;;;;;;18.88;38.72;100704.88;104148;1315;61524;-83
2022/04/18 09:19:20;;;;;;;;;;;;;;;18.88;38.76;100698.83;104198;1313;61230;-81
2022/04/18 09:21:54;;;;;;;;;;;;;;;18.89;38.67;100697.92;104221;1313;61374;-81
2022/04/18 09:24:38;;;;;;;;;;;;;;;18.89;38.77;100694.52;104299;1313;74318;-83
2022/04/18 09:27:09;;;;;;;;;;;;;;;18.89;38.55;100698.25;104207;1313;61869;-80
2022/04/18 09:29:38;;;;;;;;;;;;;;;18.90;38.74;100686.61;104259;1312;61711;-81
2022/04/18 09:32:09;;;;;;;;;;;;;;;18.89;38.67;100689.52;104049;1313;73659;-80
2022/04/18 09:34:35;;;;;;;;;;;;;;;18.89;38.57;100690.05;104135;1313;75409;-82
2022/04/18 09:37:20;;;;;;;;;;;;;;;;;;;;;
2022/04/18 09:40:02;;;;;;;;;;;;;;;18.89;38.60;100697.88;104082;1313;61195;-82
2022/04/18 09:42:31;;;;;;;;;;;;;;;18.89;38.55;100702.67;104240;1313;73892;-81
2022/04/18 09:45:23;;;;;;;;;;;;;;;18.89;38.63;100697.69;104267;1313;75829;-81
2022/04/18 09:47:59;;;;;;;;;;;;;;;18.89;38.47;100697.86;104114;1313;61376;-82
2022/04/18 09:53:59;;;;;;;;;;;;;;;18.91;38.53;100707.22;103531;1319;71496;-83
2022/04/18 09:56:43;;;;;;;;;;;;;;;18.92;38.63;100698.44;102964;1323;73931;-82
2022/04/18 09:59:31;;;;;;;;;;;;;;;;;;;;;
2022/04/18 10:02:17;;;;;;;;;;;;;;;18.90;38.43;100702.96;103059;1324;61506;-83
2022/04/18 10:05:03;;;;;;;;;;;;;;;18.91;38.49;100700.43;103146;1322;71764;-82
2022/04/18 10:07:49;;;;;;;;;;;;;;;18.91;38.49;100690.98;103504;1319;74689;-81
2022/04/18 10:10:22;;;;;;;;;;;;;;;18.91;38.51;100698.45;103494;1319;61432;-81
2022/04/18 10:13:19;;;;;;;;;;;;;;;18.91;38.51;100694.53;103174;1321;62261;-84
2022/04/18 10:16:08;;;;;;;;;;;;;;;18.91;38.46;100686.88;103040;1323;73236;-81
2022/04/18 10:18:35;;;;;;;;;;;;;;;18.91;38.28;100689.58;103120;1322;75775;-81
2022/04/18 10:21:29;;;;;;;;;;;;;;;18.91;38.18;100687.42;103217;1320;61951;-81
2022/04/18 10:24:22;;;;;;;;;;;;;;;18.91;38.21;100694.21;103191;1320;61433;-81
2022/04/18 10:27:26;;;;;;;;;;;;;;;;;;;;;
2022/04/18 10:29:55;;;;;;;;;;;;;;;18.89;38.04;100694.67;103302;1323;75850;-80
2022/04/18 10:32:45;;;;;;;;;;;;;;;18.89;38.17;100686.49;103999;1315;61291;-82
2022/04/18 10:35:31;;;;;;;;;;;;;;;18.88;38.00;100683.11;104395;1309;61139;-80
2022/04/18 10:38:06;;;;;;;;;;;;;;;18.89;38.01;100676.70;104407;1306;72674;-83
2022/04/18 10:41:28;;;;;;;;;;;;;;;;;;;;;
2022/04/18 10:44:24;;;;;;;;;;;;;;;18.89;38.01;100667.42;104653;1306;61306;-85
2022/04/18 10:47:20;;;;;;;;;;;;;;;18.88;38.02;100665.48;104217;1312;61327;-82
2022/04/18 10:50:18;;;;;;;;;;;;;;;18.89;37.96;100673.45;103446;1320;73927;-81
2022/04/18 10:53:04;;;;;;;;;;;;;;;18.89;37.95;100674.20;103102;1323;75639;-81
2022/04/18 10:55:51;;;;;;;;;;;;;;;18.89;37.83;100668.45;103069;1322;63391;-81
2022/04/18 10:58:35;;;;;;;;;;;;;;;18.90;37.72;100662.34;102912;1325;61209;-83
2022/04/18 11:01:06;;;;;;;;;;;;;;;18.89;37.72;100664.71;102929;1325;73025;-81
2022/04/18 11:03:57;;;;;;;;;;;;;;;18.89;37.67;100666.11;102807;1326;73564;-80
2022/04/18 11:06:36;;;;;;;;;;;;;;;;;;;;;
2022/04/18 11:09:16;;;;;;;;;;;;;;;;;;;;;
2022/04/18 11:12:16;;;;;;;;;;;;;;;18.89;37.64;100657.77;102807;1326;73053;-86
2022/04/18 11:14:55;;;;;;;;;;;;;;;18.88;37.65;100657.64;102500;1332;75163;-81
2022/04/18 11:17:47;;;;;;;;;;;;;;;18.88;37.46;100659.25;102454;1332;61321;-82
2022/04/18 11:20:44;;;;;;;;;;;;;;;18.87;37.47;100648.08;102123;1338;61312;-81
2022/04/18 11:23:38;;;;;;;;;;;;;;;18.86;37.48;100646.36;102262;1332;70603;-88
2022/04/18 11:26:04;;;;;;;;;;;;;;;18.85;37.31;100642.27;102476;1330;76052;-82
2022/04/18 11:28:49;;;;;;;;;;;;;;;18.85;37.34;100642.69;102398;1329;61835;-80
2022/04/18 11:31:39;;;;;;;;;;;;;;;;;;;;;
2022/04/18 11:34:27;;;;;;;;;;;;;;;18.84;37.14;100646.11;102351;1335;73236;-82
2022/04/18 11:37:33;;;;;;;;;;;;;;;18.84;37.14;100638.80;102141;1334;72470;-90
2022/04/18 11:40:28;;;;;;;;;;;;;;;18.83;37.11;100649.52;102293;1335;61605;-83
2022/04/18 11:43:34;;;;;;;;;;;;;;;18.83;37.15;100645.98;102018;1338;61488;-82
2022/04/18 11:46:16;;;;;;;;;;;;;;;18.84;37.15;100645.77;101997;1338;73193;-84
2022/04/18 11:52:10;;;;;;;;;;;;;;;18.83;37.11;100640.13;101893;1338;61359;-85
2022/04/18 11:55:06;;;;;;;;;;;;;;;18.83;37.01;100633.30;101898;1338;61229;-87
2022/04/18 11:57:54;;;;;;;;;;;;;;;18.84;37.00;100629.55;101968;1335;72972;-82
2022/04/18 12:06:49;;;;;;;;;;;;;;;18.83;36.93;100624.41;102318;1332;61893;-82
2022/04/18 12:09:35;;;;;;;;;;;;;;;18.83;36.85;100629.93;102368;1331;73779;-86
2022/04/18 12:12:10;;;;;;;;;;;;;;;18.83;36.78;100626.75;102297;1332;75841;-80
2022/04/18 12:14:45;;;;;;;;;;;;;;;18.84;36.79;100628.14;102376;1332;61402;-83
2022/04/18 12:17:41;;;;;;;;;;;;;;;18.84;36.69;100623.14;102436;1331;61333;-81
2022/04/18 12:20:26;;;;;;;;;;;;;;;18.84;36.82;100630.42;102518;1329;73693;-82
2022/04/18 12:23:08;;;;;;;;;;;;;;;18.83;36.95;100625.29;102452;1326;75949;-80
2022/04/18 12:25:44;;;;;;;;;;;;;;;18.83;36.82;100626.19;102589;1326;61188;-80
2022/04/18 12:28:30;;;;;;;;;;;;;;;18.83;36.76;100621.56;102693;1320;61160;-81
2022/04/18 12:31:18;;;;;;;;;;;;;;;18.83;36.75;100619.40;103139;1320;73871;-79
2022/04/18 12:34:01;;;;;;;;;;;;;;;18.83;36.72;100624.78;103202;1320;75734;-80
2022/04/18 12:36:49;;;;;;;;;;;;;;;18.83;36.91;100621.73;103988;1316;61182;-83
2022/04/18 12:39:43;;;;;;;;;;;;;;;18.83;36.75;100624.60;103397;1317;61413;-85
2022/04/18 12:42:23;;;;;;;;;;;;;;;18.83;36.69;100621.56;104576;1306;72226;-82
2022/04/18 12:45:29;;;;;;;;;;;;;;;18.82;36.81;100617.17;104544;1307;74717;-84
2022/04/18 12:48:08;;;;;;;;;;;;;;;;;;;;;
2022/04/18 12:50:45;;;;;;;;;;;;;;;18.82;36.67;100617.55;104709;1306;62568;-81
2022/04/18 12:53:16;;;;;;;;;;;;;;;18.82;36.77;100620.40;104878;1306;73146;-82
2022/04/18 12:56:41;;;;;;;;;;;;;;;18.81;36.74;100622.22;104605;1306;76173;-82
2022/04/18 12:59:27;;;;;;;;;;;;;;;18.82;36.70;100611.33;104907;1306;61160;-80
2022/04/18 13:02:35;;;;;;;;;;;;;;;;;;;;;
2022/04/18 13:05:12;;;;;;;;;;;;;;;18.81;36.76;100612.23;104606;1306;73755;-78
2022/04/18 13:08:02;;;;;;;;;;;;;;;18.82;36.77;100615.60;104852;1306;75800;-85
2022/04/18 13:11:17;;;;;;;;;;;;;;;18.81;36.90;100618.85;104515;1306;61249;-84
2022/04/18 13:14:09;;;;;;;;;;;;;;;;;;;;;
2022/04/18 13:16:44;;;;;;;;;;;;;;;18.81;36.87;100616.88;104542;1306;72808;-80
2022/04/18 13:19:31;;;;;;;;;;;;;;;18.81;36.80;100613.14;104478;1306;75767;-80
2022/04/18 13:22:12;;;;;;;;;;;;;;;18.81;36.69;100613.33;104627;1306;61284;-83
2022/04/18 13:24:59;;;;;;;;;;;;;;;18.80;36.64;100618.18;104593;1306;61288;-81
2022/04/18 13:27:25;;;;;;;;;;;;;;;18.80;36.68;100618.89;104510;1306;72630;-80
2022/04/18 13:30:00;;;;;;;;;;;;;;;18.80;36.69;100613.17;104461;1306;74926;-80
2022/04/18 13:32:36;;;;;;;;;;;;;;;18.80;36.76;100608.75;104304;1306;61298;-80
2022/04/18 13:35:11;;;;;;;;;;;;;;;18.80;36.68;100615.14;104476;1306;61179;-80
2022/04/18 13:37:47;;;;;;;;;;;;;;;18.81;36.68;100617.66;104542;1306;72882;-80
2022/04/18 13:40:35;;;;;;;;;;;;;;;18.80;36.67;100615.54;104521;1306;74523;-87
2022/04/18 13:43:23;;;;;;;;;;;;;;;18.80;36.63;100613.75;104675;1305;61280;-81
2022/04/18 13:45:51;;;;;;;;;;;;;;;18.79;36.59;100612.88;104710;1305;61241;-88
2022/04/18 13:48:58;;;;;;;;;;;;;;;18.79;36.57;100614.51;104630;1306;72866;-83
2022/04/18 13:51:48;;;;;;;;;;;;;;;18.79;36.52;100610.60;104526;1309;74804;-85
2022/04/18 13:54:39;;;;;;;;;;;;;;;18.78;36.48;100612.61;104721;1306;61153;-80
2022/04/18 13:57:35;;;;;;;;;;;;;;;18.78;36.37;100616.23;104331;1312;61339;-82
2022/04/18 14:00:23;;;;;;;;;;;;;;;18.77;36.47;100615.16;103749;1318;72655;-84
2022/04/18 14:03:22;;;;;;;;;;;;;;;18.76;36.46;100615.91;103734;1318;75898;-81
2022/04/18 14:05:57;;;;;;;;;;;;;;;18.76;36.44;100613.47;103682;1318;61263;-84
2022/04/18 14:09:24;;;;;;;;;;;;;;;18.75;36.34;100613.67;103702;1318;61278;-82
2022/04/18 14:12:17;;;;;;;;;;;;;;;18.75;36.37;100607.83;103758;1318;74969;-83
2022/04/18 14:20:45;;;;;;;;;;;;;;;18.73;36.13;100616.50;102990;1325;61343;-84
2022/04/18 14:23:41;;;;;;;;;;;;;;;;;;;;;
2022/04/18 14:26:56;;;;;;;;;;;;;;;18.72;36.00;100615.51;102530;1332;75653;-83
2022/04/18 14:29:55;;;;;;;;;;;;;;;;;;;;;
2022/04/18 14:32:14;;;;;;;;;;;;;;;18.71;35.85;100613.42;102406;1330;61224;-80
2022/04/18 14:35:03;;;;;;;;;;;;;;;18.71;35.87;100612.71;102549;1326;61370;-84
2022/04/18 14:37:44;;;;;;;;;;;;;;;;;;;;;
2022/04/18 14:40:33;;;;;;;;;;;;;;;;;;;;;
2022/04/18 14:43:24;;;;;;;;;;;;;;;18.70;35.70;100614.55;102964;1326;61244;-84
2022/04/18 14:46:11;;;;;;;;;;;;;;;18.70;35.72;100613.33;102965;1323;71857;-82
2022/04/18 14:48:36;;;;;;;;;;;;;;;18.69;35.49;100612.30;102963;1324;74576;-81
2022/04/18 14:51:02;;;;;;;;;;;;;;;18.69;35.43;100608.94;102859;1321;59758;-80
2022/04/18 14:53:30;;;;;;;;;;;;;;;18.69;35.70;100606.61;103304;1320;61462;-80
2022/04/18 14:56:09;;;;;;;;;;;;;;;18.68;35.42;100612.70;103304;1320;73927;-80
2022/04/18 14:58:55;;;;;;;;;;;;;;;18.68;35.37;100608.46;103535;1321;75408;-81
2022/04/18 15:01:30;;;;;;;;;;;;;;;18.68;35.39;100605.09;103415;1319;61258;-79
2022/04/18 15:04:14;;;;;;;;;;;;;;;18.68;35.31;100606.70;103631;1312;61567;-81
2022/04/18 15:07:00;;;;;;;;;;;;;;;18.68;35.24;100602.95;104144;1312;72875;-80
2022/04/18 15:09:30;;;;;;;;;;;;;;;18.67;35.16;100612.06;104158;1315;74798;-82
2022/04/18 15:12:45;;;;;;;;;;;;;;;18.67;35.03;100615.65;104175;1312;62772;-82
2022/04/18 15:15:33;;;;;;;;;;;;;;;18.67;35.07;100609.95;104407;1309;61271;-84
2022/04/18 15:18:13;;;;;;;;;;;;;;;18.67;35.11;100614.92;104566;1309;72941;-81
2022/04/18 15:20:48;;;;;;;;;;;;;;;18.67;35.03;100610.28;104525;1308;74847;-82
2022/04/18 15:24:05;;;;;;;;;;;;;;;18.67;34.95;100610.85;104544;1308;61182;-82
2022/04/18 15:26:51;;;;;;;;;;;;;;;;;;;;;
2022/04/18 15:29:40;;;;;;;;;;;;;;;18.68;34.99;100611.48;104567;1308;72756;-82
2022/04/18 15:32:17;;;;;;;;;;;;;;;18.68;34.91;100609.34;104488;1307;74665;-80
2022/04/18 15:35:02;;;;;;;;;;;;;;;;;;;;;
2022/04/18 15:37:58;;;;;;;;;;;;;;;;;;;;;
2022/04/18 15:40:53;;;;;;;;;;;;;;;18.68;35.02;100606.86;104642;1306;74685;-80
2022/04/18 15:43:50;;;;;;;;;;;;;;;;;;;;;
2022/04/18 15:46:30;;;;;;;;;;;;;;;18.68;35.04;100611.30;104728;1305;61165;-86
2022/04/18 15:49:24;;;;;;;;;;;;;;;;;;;;;
2022/04/18 15:52:00;;;;;;;;;;;;;;;18.68;35.06;100605.98;104744;1306;72617;-86
2022/04/18 15:55:18;;;;;;;;;;;;;;;;;;;;;
2022/04/18 15:57:47;;;;;;;;;;;;;;;18.67;35.08;100606.04;103621;1321;61199;-84
2022/04/18 16:00:26;;;;;;;;;;;;;;;18.67;35.07;100606.02;103610;1320;61325;-85
2022/04/18 16:03:17;;;;;;;;;;;;;;;18.67;35.26;100601.75;103566;1321;71545;-82
2022/04/18 16:06:08;;;;;;;;;;;;;;;18.66;35.17;100603.92;103603;1321;74903;-85
2022/04/18 16:11:51;;;;;;;;;;;;;;;18.66;35.33;100608.38;102784;1326;61408;-81
2022/04/18 16:14:38;;;;;;;;;;;;;;;;;;;;;